sensor_id;sensor_type;location;lat;lon;timestamp;pressure;altitude;pressure_sealevel;temperature;humidity
60974;BME280;46846;51.528;5.076;2023-03-26T00:01:20;100201.06;;;7.82;83.03
60974;BME280;46846;51.528;5.076;2023-03-26T00:03:45;100204.59;;;7.83;82.74
60974;BME280;46846;51.528;5.076;2023-03-26T00:06:12;100207.22;;;7.83;83.39
60974;BME280;46846;51.528;5.076;2023-03-26T00:08:38;100215.19;;;7.83;82.96
60974;BME280;46846;51.528;5.076;2023-03-26T00:11:05;100201.13;;;7.80;83.39
60974;BME280;46846;51.528;5.076;2023-03-26T00:13:30;100203.81;;;7.79;83.04
60974;BME280;46846;51.528;5.076;2023-03-26T00:15:57;100195.84;;;7.80;83.29
60974;BME280;46846;51.528;5.076;2023-03-26T00:18:22;100192.25;;;7.82;83.51
60974;BME280;46846;51.528;5.076;2023-03-26T00:20:58;100186.97;;;7.82;83.61
60974;BME280;46846;51.528;5.076;2023-03-26T00:23:23;100189.78;;;7.77;83.52
60974;BME280;46846;51.528;5.076;2023-03-26T00:25:49;100188.88;;;7.76;83.37
60974;BME280;46846;51.528;5.076;2023-03-26T00:28:15;100187.19;;;7.74;83.61
60974;BME280;46846;51.528;5.076;2023-03-26T00:30:41;100189.94;;;7.72;83.45
60974;BME280;46846;51.528;5.076;2023-03-26T00:33:06;100180.19;;;7.73;83.50
60974;BME280;46846;51.528;5.076;2023-03-26T00:35:34;100181.97;;;7.72;83.62
60974;BME280;46846;51.528;5.076;2023-03-26T00:38:00;100176.72;;;7.71;83.52
60974;BME280;46846;51.528;5.076;2023-03-26T00:40:25;100173.19;;;7.70;83.66
60974;BME280;46846;51.528;5.076;2023-03-26T00:42:50;100169.78;;;7.66;83.72
60974;BME280;46846;51.528;5.076;2023-03-26T00:45:16;100174.25;;;7.66;83.58
60974;BME280;46846;51.528;5.076;2023-03-26T00:47:45;100166.28;;;7.66;83.59
60974;BME280;46846;51.528;5.076;2023-03-26T00:50:10;100159.28;;;7.65;83.52
60974;BME280;46846;51.528;5.076;2023-03-26T00:52:40;100166.34;;;7.64;83.60
60974;BME280;46846;51.528;5.076;2023-03-26T00:55:05;100157.63;;;7.61;83.56
60974;BME280;46846;51.528;5.076;2023-03-26T00:57:31;100147.91;;;7.61;83.41
60974;BME280;46846;51.528;5.076;2023-03-26T00:59:56;100150.50;;;7.63;83.43
60974;BME280;46846;51.528;5.076;2023-03-26T01:02:21;100145.19;;;7.63;83.30
60974;BME280;46846;51.528;5.076;2023-03-26T01:04:50;100144.38;;;7.61;83.55
60974;BME280;46846;51.528;5.076;2023-03-26T01:07:19;100131.16;;;7.61;83.20
60974;BME280;46846;51.528;5.076;2023-03-26T01:09:46;100132.94;;;7.60;83.18
60974;BME280;46846;51.528;5.076;2023-03-26T01:12:14;100134.75;;;7.58;83.21
60974;BME280;46846;51.528;5.076;2023-03-26T01:14:42;100126.00;;;7.56;83.32
60974;BME280;46846;51.528;5.076;2023-03-26T01:17:07;100115.41;;;7.56;83.15
60974;BME280;46846;51.528;5.076;2023-03-26T01:22:02;100110.25;;;7.53;83.26
60974;BME280;46846;51.528;5.076;2023-03-26T01:24:29;100113.75;;;7.53;83.41
60974;BME280;46846;51.528;5.076;2023-03-26T01:27:03;100102.34;;;7.51;83.23
60974;BME280;46846;51.528;5.076;2023-03-26T01:40:40;100092.91;;;7.43;83.52
60974;BME280;46846;51.528;5.076;2023-03-26T01:45:51;100088.59;;;7.40;83.15
60974;BME280;46846;51.528;5.076;2023-03-26T01:48:17;100084.19;;;7.41;83.11
60974;BME280;46846;51.528;5.076;2023-03-26T01:50:42;100084.22;;;7.39;83.12
60974;BME280;46846;51.528;5.076;2023-03-26T01:53:07;100080.75;;;7.37;83.24
60974;BME280;46846;51.528;5.076;2023-03-26T01:55:47;100076.47;;;7.33;83.71
60974;BME280;46846;51.528;5.076;2023-03-26T01:58:26;100068.53;;;7.33;83.62
60974;BME280;46846;51.528;5.076;2023-03-26T02:06:44;100058.09;;;7.28;83.49
60974;BME280;46846;51.528;5.076;2023-03-26T02:09:19;100048.47;;;7.25;83.68
60974;BME280;46846;51.528;5.076;2023-03-26T02:11:46;100047.59;;;7.27;83.64
60974;BME280;46846;51.528;5.076;2023-03-26T02:14:12;100042.31;;;7.27;83.41
60974;BME280;46846;51.528;5.076;2023-03-26T02:16:38;100043.25;;;7.24;83.71
60974;BME280;46846;51.528;5.076;2023-03-26T02:19:04;100041.53;;;7.23;83.61
60974;BME280;46846;51.528;5.076;2023-03-26T02:21:29;100041.53;;;7.23;83.89
60974;BME280;46846;51.528;5.076;2023-03-26T02:23:58;100044.22;;;7.21;83.65
60974;BME280;46846;51.528;5.076;2023-03-26T02:26:33;100039.78;;;7.22;83.65
60974;BME280;46846;51.528;5.076;2023-03-26T02:28:58;100038.06;;;7.21;83.30
60974;BME280;46846;51.528;5.076;2023-03-26T02:31:25;100034.56;;;7.20;83.41
60974;BME280;46846;51.528;5.076;2023-03-26T02:33:51;100024.91;;;7.19;83.75
60974;BME280;46846;51.528;5.076;2023-03-26T02:36:16;100025.75;;;7.20;83.81
60974;BME280;46846;51.528;5.076;2023-03-26T02:38:45;100017.06;;;7.16;83.82
60974;BME280;46846;51.528;5.076;2023-03-26T02:41:11;100019.81;;;7.13;83.69
60974;BME280;46846;51.528;5.076;2023-03-26T02:43:36;100012.78;;;7.12;83.90
60974;BME280;46846;51.528;5.076;2023-03-26T02:46:01;100005.69;;;7.13;83.89
60974;BME280;46846;51.528;5.076;2023-03-26T02:48:26;100003.09;;;7.11;83.80
60974;BME280;46846;51.528;5.076;2023-03-26T02:50:52;99993.44;;;7.10;83.61
60974;BME280;46846;51.528;5.076;2023-03-26T02:53:21;99991.63;;;7.12;83.89
60974;BME280;46846;51.528;5.076;2023-03-26T02:55:48;99982.84;;;7.10;83.81
60974;BME280;46846;51.528;5.076;2023-03-26T02:58:13;99985.56;;;7.08;83.38
60974;BME280;46846;51.528;5.076;2023-03-26T03:00:41;99977.56;;;7.10;83.85
60974;BME280;46846;51.528;5.076;2023-03-26T03:03:07;99969.75;;;7.07;83.78
60974;BME280;46846;51.528;5.076;2023-03-26T03:05:33;99974.13;;;7.08;83.70
60974;BME280;46846;51.528;5.076;2023-03-26T03:07:58;99968.81;;;7.08;83.49
60974;BME280;46846;51.528;5.076;2023-03-26T03:10:24;99967.09;;;7.07;83.77
60974;BME280;46846;51.528;5.076;2023-03-26T03:12:50;99957.41;;;7.07;83.95
60974;BME280;46846;51.528;5.076;2023-03-26T03:15:15;99958.25;;;7.08;83.65
60974;BME280;46846;51.528;5.076;2023-03-26T03:17:40;99958.25;;;7.08;83.68
60974;BME280;46846;51.528;5.076;2023-03-26T03:20:06;99943.34;;;7.05;83.58
60974;BME280;46846;51.528;5.076;2023-03-26T03:22:35;99946.06;;;7.04;83.57
60974;BME280;46846;51.528;5.076;2023-03-26T03:25:01;99945.19;;;7.03;83.91
60974;BME280;46846;51.528;5.076;2023-03-26T03:27:26;99941.63;;;7.04;83.30
60974;BME280;46846;51.528;5.076;2023-03-26T03:29:52;99939.13;;;7.00;83.88
60974;BME280;46846;51.528;5.076;2023-03-26T03:32:18;99939.16;;;6.98;83.55
60974;BME280;46846;51.528;5.076;2023-03-26T03:34:43;99932.97;;;6.99;83.43
60974;BME280;46846;51.528;5.076;2023-03-26T03:37:08;99933.97;;;6.96;83.77
60974;BME280;46846;51.528;5.076;2023-03-26T03:39:33;99922.50;;;6.96;83.69
60974;BME280;46846;51.528;5.076;2023-03-26T03:41:58;99919.91;;;6.94;83.78
60974;BME280;46846;51.528;5.076;2023-03-26T03:44:24;99911.03;;;6.95;83.98
60974;BME280;46846;51.528;5.076;2023-03-26T03:46:49;99915.66;;;6.90;83.37
60974;BME280;46846;51.528;5.076;2023-03-26T03:49:18;99904.22;;;6.88;83.73
60974;BME280;46846;51.528;5.076;2023-03-26T03:51:43;99914.72;;;6.91;83.43
60974;BME280;46846;51.528;5.076;2023-03-26T03:54:08;99902.31;;;6.93;83.61
60974;BME280;46846;51.528;5.076;2023-03-26T03:56:33;99891.72;;;6.93;83.67
60974;BME280;46846;51.528;5.076;2023-03-26T03:59:00;99885.47;;;6.96;83.39
60974;BME280;46846;51.528;5.076;2023-03-26T04:01:25;99881.84;;;6.98;83.43
60974;BME280;46846;51.528;5.076;2023-03-26T04:03:50;99883.72;;;6.96;83.20
60974;BME280;46846;51.528;5.076;2023-03-26T04:06:16;99879.25;;;6.97;83.35
60974;BME280;46846;51.528;5.076;2023-03-26T04:08:43;99875.78;;;6.96;83.40
60974;BME280;46846;51.528;5.076;2023-03-26T04:11:08;99873.13;;;6.96;83.17
60974;BME280;46846;51.528;5.076;2023-03-26T04:13:34;99867.84;;;6.96;83.56
60974;BME280;46846;51.528;5.076;2023-03-26T04:16:00;99865.19;;;6.96;83.33
60974;BME280;46846;51.528;5.076;2023-03-26T04:18:25;99865.19;;;6.96;83.46
60974;BME280;46846;51.528;5.076;2023-03-26T04:20:51;99859.91;;;6.96;83.36
60974;BME280;46846;51.528;5.076;2023-03-26T04:23:19;99850.22;;;6.95;83.47
60974;BME280;46846;51.528;5.076;2023-03-26T04:25:48;99844.13;;;6.93;83.48
60974;BME280;46846;51.528;5.076;2023-03-26T04:28:16;99837.09;;;6.92;83.25
60974;BME280;46846;51.528;5.076;2023-03-26T04:30:43;99844.13;;;6.93;83.79
60974;BME280;46846;51.528;5.076;2023-03-26T04:33:09;99843.19;;;6.94;83.21
60974;BME280;46846;51.528;5.076;2023-03-26T04:35:39;99830.91;;;6.93;83.71
60974;BME280;46846;51.528;5.076;2023-03-26T04:38:08;99830.94;;;6.92;83.39
60974;BME280;46846;51.528;5.076;2023-03-26T04:40:34;99830.09;;;6.91;83.24
60974;BME280;46846;51.528;5.076;2023-03-26T04:43:00;99828.38;;;6.90;83.11
60974;BME280;46846;51.528;5.076;2023-03-26T04:45:27;99822.25;;;6.88;83.43
60974;BME280;46846;51.528;5.076;2023-03-26T04:47:54;99813.53;;;6.86;83.65
60974;BME280;46846;51.528;5.076;2023-03-26T04:50:20;99808.22;;;6.86;83.44
60974;BME280;46846;51.528;5.076;2023-03-26T04:52:46;99794.16;;;6.86;83.46
60974;BME280;46846;51.528;5.076;2023-03-26T04:55:15;99791.44;;;6.87;83.75
60974;BME280;46846;51.528;5.076;2023-03-26T04:57:43;99790.59;;;6.87;83.54
60974;BME280;46846;51.528;5.076;2023-03-26T05:00:14;99783.50;;;6.87;83.84
60974;BME280;46846;51.528;5.076;2023-03-26T05:02:40;99788.88;;;6.86;83.47
60974;BME280;46846;51.528;5.076;2023-03-26T05:05:06;99787.19;;;6.83;83.24
60974;BME280;46846;51.528;5.076;2023-03-26T05:07:31;99783.69;;;6.82;83.67
60974;BME280;46846;51.528;5.076;2023-03-26T05:09:57;99781.91;;;6.83;83.57
60974;BME280;46846;51.528;5.076;2023-03-26T05:12:22;99781.91;;;6.83;83.54
60974;BME280;46846;51.528;5.076;2023-03-26T05:14:47;99777.44;;;6.85;83.53
60974;BME280;46846;51.528;5.076;2023-03-26T05:17:13;99770.41;;;6.84;83.86
60974;BME280;46846;51.528;5.076;2023-03-26T05:19:38;99766.09;;;6.81;83.82
60974;BME280;46846;51.528;5.076;2023-03-26T05:22:05;99765.22;;;6.81;83.53
60974;BME280;46846;51.528;5.076;2023-03-26T05:24:30;99758.22;;;6.80;83.77
60974;BME280;46846;51.528;5.076;2023-03-26T05:26:55;99751.19;;;6.79;83.77
60974;BME280;46846;51.528;5.076;2023-03-26T05:29:21;99749.47;;;6.78;84.09
60974;BME280;46846;51.528;5.076;2023-03-26T05:31:48;99741.53;;;6.78;83.49
60974;BME280;46846;51.528;5.076;2023-03-26T05:34:13;99730.03;;;6.79;83.95
60974;BME280;46846;51.528;5.076;2023-03-26T05:36:39;99724.66;;;6.82;83.72
60974;BME280;46846;51.528;5.076;2023-03-26T05:39:04;99722.81;;;6.84;83.27
60974;BME280;46846;51.528;5.076;2023-03-26T05:41:30;99714.09;;;6.82;83.34
60974;BME280;46846;51.528;5.076;2023-03-26T05:43:55;99712.28;;;6.82;83.58
60974;BME280;46846;51.528;5.076;2023-03-26T05:46:20;99717.75;;;6.78;83.30
60974;BME280;46846;51.528;5.076;2023-03-26T05:48:47;99717.88;;;6.75;83.90
60974;BME280;46846;51.528;5.076;2023-03-26T05:51:12;99727.53;;;6.76;84.03
60974;BME280;46846;51.528;5.076;2023-03-26T05:53:39;99718.75;;;6.74;83.66
60974;BME280;46846;51.528;5.076;2023-03-26T05:56:05;99721.41;;;6.74;83.86
60974;BME280;46846;51.528;5.076;2023-03-26T05:58:31;99710.84;;;6.74;84.01
60974;BME280;46846;51.528;5.076;2023-03-26T06:01:01;99712.59;;;6.75;83.62
60974;BME280;46846;51.528;5.076;2023-03-26T06:03:30;99717.88;;;6.75;84.06
60974;BME280;46846;51.528;5.076;2023-03-26T06:05:58;99709.94;;;6.75;83.85
60974;BME280;46846;51.528;5.076;2023-03-26T06:08:23;99705.53;;;6.74;83.60
60974;BME280;46846;51.528;5.076;2023-03-26T06:10:49;99701.19;;;6.73;83.85
60974;BME280;46846;51.528;5.076;2023-03-26T06:13:17;99705.63;;;6.72;83.94
60974;BME280;46846;51.528;5.076;2023-03-26T06:15:43;99700.25;;;6.74;83.97
60974;BME280;46846;51.528;5.076;2023-03-26T06:18:08;99695.91;;;6.73;84.00
60974;BME280;46846;51.528;5.076;2023-03-26T06:20:33;99695.91;;;6.73;84.06
60974;BME280;46846;51.528;5.076;2023-03-26T06:22:59;99697.69;;;6.72;83.99
60974;BME280;46846;51.528;5.076;2023-03-26T06:25:24;99694.13;;;6.73;84.13
60974;BME280;46846;51.528;5.076;2023-03-26T06:27:50;99688.84;;;6.73;84.08
60974;BME280;46846;51.528;5.076;2023-03-26T06:30:15;99678.41;;;6.70;84.03
60974;BME280;46846;51.528;5.076;2023-03-26T06:32:40;99687.13;;;6.72;84.16
60974;BME280;46846;51.528;5.076;2023-03-26T06:35:06;99684.47;;;6.72;83.85
60974;BME280;46846;51.528;5.076;2023-03-26T06:37:31;99684.41;;;6.74;83.83
60974;BME280;46846;51.528;5.076;2023-03-26T06:39:56;99682.81;;;6.69;83.71
60974;BME280;46846;51.528;5.076;2023-03-26T06:42:22;99682.00;;;6.67;84.01
60974;BME280;46846;51.528;5.076;2023-03-26T06:44:47;99680.22;;;6.68;83.74
60974;BME280;46846;51.528;5.076;2023-03-26T06:47:12;99685.50;;;6.68;83.79
60974;BME280;46846;51.528;5.076;2023-03-26T06:49:37;99686.47;;;6.65;84.10
60974;BME280;46846;51.528;5.076;2023-03-26T06:52:03;99684.75;;;6.64;84.04
60974;BME280;46846;51.528;5.076;2023-03-26T06:54:28;99689.19;;;6.64;83.91
60974;BME280;46846;51.528;5.076;2023-03-26T06:56:54;99683.16;;;6.60;84.43
60974;BME280;46846;51.528;5.076;2023-03-26T06:59:20;99687.47;;;6.63;84.46
60974;BME280;46846;51.528;5.076;2023-03-26T07:01:45;99685.63;;;6.65;84.01
60974;BME280;46846;51.528;5.076;2023-03-26T07:04:10;99687.38;;;6.64;83.98
60974;BME280;46846;51.528;5.076;2023-03-26T07:06:36;99686.53;;;6.64;84.18
60974;BME280;46846;51.528;5.076;2023-03-26T07:09:01;99684.91;;;6.60;84.12
60974;BME280;46846;51.528;5.076;2023-03-26T07:11:26;99676.16;;;6.59;84.05
60974;BME280;46846;51.528;5.076;2023-03-26T07:13:52;99679.59;;;6.61;84.10
60974;BME280;46846;51.528;5.076;2023-03-26T07:16:20;99672.59;;;6.60;84.40
60974;BME280;46846;51.528;5.076;2023-03-26T07:18:49;99669.00;;;6.61;84.14
60974;BME280;46846;51.528;5.076;2023-03-26T07:21:15;99674.31;;;6.61;83.91
60974;BME280;46846;51.528;5.076;2023-03-26T07:23:40;99670.84;;;6.59;84.27
60974;BME280;46846;51.528;5.076;2023-03-26T07:28:46;99669.19;;;6.56;84.40
60974;BME280;46846;51.528;5.076;2023-03-26T07:34:25;99667.38;;;6.57;84.28
60974;BME280;46846;51.528;5.076;2023-03-26T07:36:56;99664.75;;;6.57;84.54
60974;BME280;46846;51.528;5.076;2023-03-26T07:42:28;99660.28;;;6.59;84.43
60974;BME280;46846;51.528;5.076;2023-03-26T07:49:51;99665.50;;;6.61;84.48
60974;BME280;46846;51.528;5.076;2023-03-26T07:52:17;99655.84;;;6.60;84.25
60974;BME280;46846;51.528;5.076;2023-03-26T07:54:42;99661.19;;;6.58;84.43
60974;BME280;46846;51.528;5.076;2023-03-26T07:57:11;99656.81;;;6.57;84.57
60974;BME280;46846;51.528;5.076;2023-03-26T07:59:50;99655.09;;;6.56;84.18
60974;BME280;46846;51.528;5.076;2023-03-26T08:02:28;99654.16;;;6.57;84.62
60974;BME280;46846;51.528;5.076;2023-03-26T08:05:00;99652.41;;;6.57;84.28
60974;BME280;46846;51.528;5.076;2023-03-26T08:10:02;99648.97;;;6.55;84.16
60974;BME280;46846;51.528;5.076;2023-03-26T08:17:51;99646.38;;;6.54;84.87
60974;BME280;46846;51.528;5.076;2023-03-26T08:22:48;99649.09;;;6.51;84.65
60974;BME280;46846;51.528;5.076;2023-03-26T08:30:16;99653.50;;;6.52;84.26
60974;BME280;46846;51.528;5.076;2023-03-26T08:32:44;99649.81;;;6.56;84.72
60974;BME280;46846;51.528;5.076;2023-03-26T08:35:13;99649.81;;;6.56;84.47
60974;BME280;46846;51.528;5.076;2023-03-26T08:37:39;99652.50;;;6.54;84.41
60974;BME280;46846;51.528;5.076;2023-03-26T08:40:05;99653.50;;;6.52;84.51
60974;BME280;46846;51.528;5.076;2023-03-26T08:42:46;99650.69;;;6.56;84.52
60974;BME280;46846;51.528;5.076;2023-03-26T09:11:29;99641.47;;;6.67;84.04
60974;BME280;46846;51.528;5.076;2023-03-26T09:14:03;99632.72;;;6.66;84.11
60974;BME280;46846;51.528;5.076;2023-03-26T09:26:28;99638.75;;;6.70;84.36
60974;BME280;46846;51.528;5.076;2023-03-26T09:34:16;99627.16;;;6.73;83.95
60974;BME280;46846;51.528;5.076;2023-03-26T09:37:03;99633.31;;;6.73;84.29
60974;BME280;46846;51.528;5.076;2023-03-26T09:39:41;99628.88;;;6.74;84.04
60974;BME280;46846;51.528;5.076;2023-03-26T09:47:39;99631.03;;;6.64;84.64
60974;BME280;46846;51.528;5.076;2023-03-26T09:50:19;99636.25;;;6.65;84.49
60974;BME280;46846;51.528;5.076;2023-03-26T09:53:12;99633.59;;;6.65;84.93
60974;BME280;46846;51.528;5.076;2023-03-26T10:06:57;99640.63;;;6.66;84.92
60974;BME280;46846;51.528;5.076;2023-03-26T10:09:12;99648.44;;;6.69;84.82
60974;BME280;46846;51.528;5.076;2023-03-26T10:11:55;99640.50;;;6.69;84.63
60974;BME280;46846;51.528;5.076;2023-03-26T10:14:33;99643.09;;;6.71;84.55
60974;BME280;46846;51.528;5.076;2023-03-26T10:27:26;99643.72;;;6.78;84.45
60974;BME280;46846;51.528;5.076;2023-03-26T10:29:57;99645.44;;;6.79;84.65
60974;BME280;46846;51.528;5.076;2023-03-26T10:40:11;99648.09;;;6.79;84.05
60974;BME280;46846;51.528;5.076;2023-03-26T10:42:40;99655.91;;;6.82;84.37
60974;BME280;46846;51.528;5.076;2023-03-26T10:55:36;99661.81;;;6.89;83.81
60974;BME280;46846;51.528;5.076;2023-03-26T10:58:16;99660.19;;;6.84;84.43
60974;BME280;46846;51.528;5.076;2023-03-26T11:00:54;99664.50;;;6.87;83.68
60974;BME280;46846;51.528;5.076;2023-03-26T11:13:49;99687.56;;;6.83;84.45
60974;BME280;46846;51.528;5.076;2023-03-26T11:16:20;99681.44;;;6.83;84.43
60974;BME280;46846;51.528;5.076;2023-03-26T11:19:07;99682.28;;;6.83;84.30
60974;BME280;46846;51.528;5.076;2023-03-26T11:21:48;99690.22;;;6.83;83.94
60974;BME280;46846;51.528;5.076;2023-03-26T11:24:30;99695.41;;;6.87;84.07
60974;BME280;46846;51.528;5.076;2023-03-26T11:27:02;99700.63;;;6.88;84.04
60974;BME280;46846;51.528;5.076;2023-03-26T11:29:37;99699.06;;;6.82;84.55
60974;BME280;46846;51.528;5.076;2023-03-26T11:32:16;99697.16;;;6.86;84.70
60974;BME280;46846;51.528;5.076;2023-03-26T11:37:13;99695.03;;;6.96;84.08
60974;BME280;46846;51.528;5.076;2023-03-26T11:39:48;99690.50;;;7.00;83.93
60974;BME280;46846;51.528;5.076;2023-03-26T11:42:14;99700.16;;;7.01;83.65
60974;BME280;46846;51.528;5.076;2023-03-26T11:44:54;99688.72;;;7.00;84.13
60974;BME280;46846;51.528;5.076;2023-03-26T11:47:23;99691.38;;;7.00;84.18
60974;BME280;46846;51.528;5.076;2023-03-26T11:49:52;99696.75;;;6.97;83.78
60974;BME280;46846;51.528;5.076;2023-03-26T11:52:19;99707.34;;;6.97;83.84
60974;BME280;46846;51.528;5.076;2023-03-26T11:54:45;99702.06;;;6.97;83.89
60974;BME280;46846;51.528;5.076;2023-03-26T12:00:11;99708.09;;;7.01;83.95
60974;BME280;46846;51.528;5.076;2023-03-26T12:02:43;99699.19;;;7.03;83.82
60974;BME280;46846;51.528;5.076;2023-03-26T12:07:40;99714.88;;;7.08;83.21
60974;BME280;46846;51.528;5.076;2023-03-26T12:10:19;99717.56;;;7.06;83.59
60974;BME280;46846;51.528;5.076;2023-03-26T12:12:45;99716.59;;;7.09;83.65
60974;BME280;46846;51.528;5.076;2023-03-26T12:15:12;99713.16;;;7.07;83.71
60974;BME280;46846;51.528;5.076;2023-03-26T12:17:38;99719.19;;;7.10;83.23
60974;BME280;46846;51.528;5.076;2023-03-26T12:20:48;99715.38;;;7.18;83.55
60974;BME280;46846;51.528;5.076;2023-03-26T12:22:56;99717.25;;;7.16;83.46
60974;BME280;46846;51.528;5.076;2023-03-26T12:25:25;99730.34;;;7.19;83.79
60974;BME280;46846;51.528;5.076;2023-03-26T12:27:56;99724.03;;;7.23;83.80
60974;BME280;46846;51.528;5.076;2023-03-26T12:30:36;99729.38;;;7.21;83.50
60974;BME280;46846;51.528;5.076;2023-03-26T12:33:04;99725.00;;;7.20;83.84
60974;BME280;46846;51.528;5.076;2023-03-26T12:35:31;99727.47;;;7.25;83.77
60974;BME280;46846;51.528;5.076;2023-03-26T12:41:09;99722.03;;;7.28;83.50
60974;BME280;46846;51.528;5.076;2023-03-26T12:43:40;99735.16;;;7.31;83.99
60974;BME280;46846;51.528;5.076;2023-03-26T12:46:22;99738.09;;;7.23;83.86
60974;BME280;46846;51.528;5.076;2023-03-26T12:48:49;99730.09;;;7.25;83.93
60974;BME280;46846;51.528;5.076;2023-03-26T12:56:17;99737.88;;;7.30;84.24
60974;BME280;46846;51.528;5.076;2023-03-26T13:06:15;99748.28;;;7.34;84.29
60974;BME280;46846;51.528;5.076;2023-03-26T13:08:49;99755.09;;;7.40;84.14
60974;BME280;46846;51.528;5.076;2023-03-26T13:14:32;99754.47;;;7.33;84.11
60974;BME280;46846;51.528;5.076;2023-03-26T13:18:58;99763.53;;;7.28;84.30
60974;BME280;46846;51.528;5.076;2023-03-26T13:24:03;99761.50;;;7.34;84.41
60974;BME280;46846;51.528;5.076;2023-03-26T13:26:40;99765.03;;;7.35;84.22
60974;BME280;46846;51.528;5.076;2023-03-26T13:31:39;99775.44;;;7.39;84.38
60974;BME280;46846;51.528;5.076;2023-03-26T13:34:17;99775.13;;;7.47;83.97
60974;BME280;46846;51.528;5.076;2023-03-26T13:36:50;99775.84;;;7.51;84.05
60974;BME280;46846;51.528;5.076;2023-03-26T13:39:23;99781.38;;;7.45;84.05
60974;BME280;46846;51.528;5.076;2023-03-26T13:46:48;99776.84;;;7.48;84.17
60974;BME280;46846;51.528;5.076;2023-03-26T13:49:19;99794.69;;;7.43;84.14
60974;BME280;46846;51.528;5.076;2023-03-26T13:51:49;99799.06;;;7.44;84.01
60974;BME280;46846;51.528;5.076;2023-03-26T13:59:36;99814.81;;;7.47;84.45
60974;BME280;46846;51.528;5.076;2023-03-26T14:02:37;99827.22;;;7.47;84.30
60974;BME280;46846;51.528;5.076;2023-03-26T14:04:55;99820.06;;;7.49;84.58
60974;BME280;46846;51.528;5.076;2023-03-26T14:07:24;99823.72;;;7.45;84.35
60974;BME280;46846;51.528;5.076;2023-03-26T14:10:02;99828.88;;;7.49;84.29
60974;BME280;46846;51.528;5.076;2023-03-26T14:12:43;99838.53;;;7.50;83.88
60974;BME280;46846;51.528;5.076;2023-03-26T14:15:26;99845.56;;;7.51;83.93
60974;BME280;46846;51.528;5.076;2023-03-26T14:23:28;99853.59;;;7.48;83.87
60974;BME280;46846;51.528;5.076;2023-03-26T14:42:06;99877.41;;;7.48;83.40
60974;BME280;46846;51.528;5.076;2023-03-26T14:47:08;99886.94;;;7.54;82.69
60974;BME280;46846;51.528;5.076;2023-03-26T14:54:47;99908.34;;;7.48;82.92
60974;BME280;46846;51.528;5.076;2023-03-26T14:57:20;99906.66;;;7.45;83.54
60974;BME280;46846;51.528;5.076;2023-03-26T15:11:13;99937.41;;;7.49;83.13
60974;BME280;46846;51.528;5.076;2023-03-26T15:13:48;99931.41;;;7.44;83.54
60974;BME280;46846;51.528;5.076;2023-03-26T15:19:08;99944.66;;;7.44;83.40
60974;BME280;46846;51.528;5.076;2023-03-26T15:29:44;99964.44;;;7.34;83.61
60974;BME280;46846;51.528;5.076;2023-03-26T15:34:55;99973.94;;;7.39;83.88
60974;BME280;46846;51.528;5.076;2023-03-26T15:45:25;99991.69;;;7.36;83.48
60974;BME280;46846;51.528;5.076;2023-03-26T15:53:42;100001.47;;;7.34;83.04
60974;BME280;46846;51.528;5.076;2023-03-26T15:59:04;100010.28;;;7.34;83.12
60974;BME280;46846;51.528;5.076;2023-03-26T16:01:35;100006.69;;;7.35;82.67
60974;BME280;46846;51.528;5.076;2023-03-26T16:06:47;100032.47;;;7.30;83.04
60974;BME280;46846;51.528;5.076;2023-03-26T16:11:53;100033.44;;;7.28;83.09
60974;BME280;46846;51.528;5.076;2023-03-26T16:14:37;100046.50;;;7.32;82.98
60974;BME280;46846;51.528;5.076;2023-03-26T16:17:07;100051.00;;;7.30;82.19
60974;BME280;46846;51.528;5.076;2023-03-26T16:19:46;100059.06;;;7.25;81.91
60974;BME280;46846;51.528;5.076;2023-03-26T16:25:17;100064.50;;;7.21;81.81
60974;BME280;46846;51.528;5.076;2023-03-26T16:27:45;100067.00;;;7.25;81.50
60974;BME280;46846;51.528;5.076;2023-03-26T16:30:15;100078.63;;;7.21;81.05
60974;BME280;46846;51.528;5.076;2023-03-26T16:32:54;100093.81;;;7.15;81.52
60974;BME280;46846;51.528;5.076;2023-03-26T16:38:23;100108.03;;;7.12;81.02
60974;BME280;46846;51.528;5.076;2023-03-26T16:40:56;100116.66;;;7.17;80.57
60974;BME280;46846;51.528;5.076;2023-03-26T16:43:26;100121.00;;;7.20;81.07
60974;BME280;46846;51.528;5.076;2023-03-26T16:46:00;100121.03;;;7.18;81.21
60974;BME280;46846;51.528;5.076;2023-03-26T16:56:34;100153.81;;;7.14;77.60
60974;BME280;46846;51.528;5.076;2023-03-26T16:59:16;100151.03;;;7.19;79.82
60974;BME280;46846;51.528;5.076;2023-03-26T17:01:52;100164.22;;;7.20;79.11
60974;BME280;46846;51.528;5.076;2023-03-26T17:04:22;100178.41;;;7.18;79.41
60974;BME280;46846;51.528;5.076;2023-03-26T17:06:56;100179.63;;;7.07;79.65
60974;BME280;46846;51.528;5.076;2023-03-26T17:17:19;100209.72;;;7.03;79.63
60974;BME280;46846;51.528;5.076;2023-03-26T17:29:57;100233.56;;;7.02;78.48
60974;BME280;46846;51.528;5.076;2023-03-26T17:32:24;100235.38;;;7.00;76.28
60974;BME280;46846;51.528;5.076;2023-03-26T17:35:11;100241.03;;;6.87;80.01
60974;BME280;46846;51.528;5.076;2023-03-26T17:37:40;100247.16;;;6.89;79.80
60974;BME280;46846;51.528;5.076;2023-03-26T17:43:08;100271.75;;;6.93;79.07
60974;BME280;46846;51.528;5.076;2023-03-26T17:45:35;100275.34;;;6.90;79.53
60974;BME280;46846;51.528;5.076;2023-03-26T17:50:30;100278.91;;;6.89;79.95
60974;BME280;46846;51.528;5.076;2023-03-26T17:52:59;100286.84;;;6.88;77.33
60974;BME280;46846;51.528;5.076;2023-03-26T17:55:29;100282.38;;;6.90;79.15
60974;BME280;46846;51.528;5.076;2023-03-26T17:57:57;100293.84;;;6.90;73.25
60974;BME280;46846;51.528;5.076;2023-03-26T18:00:42;100305.38;;;6.88;78.22
60974;BME280;46846;51.528;5.076;2023-03-26T18:03:28;100304.66;;;6.81;78.80
60974;BME280;46846;51.528;5.076;2023-03-26T18:06:05;100316.00;;;6.84;79.00
60974;BME280;46846;51.528;5.076;2023-03-26T18:16:09;100347.19;;;6.73;79.48
60974;BME280;46846;51.528;5.076;2023-03-26T18:19:19;100358.59;;;6.75;77.91
60974;BME280;46846;51.528;5.076;2023-03-26T18:21:33;100366.53;;;6.75;77.79
60974;BME280;46846;51.528;5.076;2023-03-26T18:24:00;100361.25;;;6.74;77.23
60974;BME280;46846;51.528;5.076;2023-03-26T18:26:39;100359.72;;;6.66;78.21
60974;BME280;46846;51.528;5.076;2023-03-26T18:29:10;100374.56;;;6.70;77.79
60974;BME280;46846;51.528;5.076;2023-03-26T18:31:39;100378.00;;;6.74;77.72